Time;durP1;ratioP1;P1;durP2;ratioP2;P2;SDS_P1;SDS_P2;PMS_P1;PMS_P2;Temp;Humidity;BMP_temperature;BMP_pressure;BME280_temperature;BME280_humidity;BME280_pressure;Samples;Min_cycle;Max_cycle;Signal;HPM_P1;HPM_P2
2022/11/16 00:03:43;;;;;;;;;;;;;;;10.58;94.11;99711.19;20897528;28;20091;-62
2022/11/16 00:14:05;;;;;;;7.70;4.10;;;;;;;10.59;93.78;99702.41;20899253;28;19943;-62
2022/11/16 00:24:26;;;;;;;5.03;3.65;;;;;;;10.58;94.36;99692.94;20923666;28;20264;-62
2022/11/16 00:34:48;;;;;;;10.68;4.25;;;;;;;10.58;94.90;99679.91;21012936;28;20118;-62
2022/11/16 00:45:09;;;;;;;7.30;3.90;;;;;;;10.54;95.93;99683.72;20956401;22;20368;-66
2022/11/16 00:55:31;;;;;;;6.60;4.05;;;;;;;10.46;97.17;99666.25;20917049;28;20306;-68
2022/11/16 01:05:59;;;;;;;7.22;3.72;;;;;;;10.48;97.96;99666.94;20976676;28;20040;-67
2022/11/16 01:16:22;;;;;;;5.70;3.42;;;;;;;10.40;99.19;99661.53;20992275;28;20135;-67
2022/11/16 01:26:44;;;;;;;5.80;3.80;;;;;;;10.30;100.00;99645.81;20986958;28;20047;-68
2022/11/16 01:37:05;;;;;;;6.63;4.53;;;;;;;10.21;100.00;99637.94;20985586;28;20044;-68
2022/11/16 01:47:28;;;;;;;6.57;3.88;;;;;;;10.15;100.00;99623.63;20992010;28;20049;-68
2022/11/16 01:57:50;;;;;;;6.55;4.22;;;;;;;10.12;100.00;99599.63;20988779;28;20501;-68
2022/11/16 02:19:37;;;;;;;5.30;3.50;;;;;;;10.09;100.00;99572.09;21011146;28;19977;-68
2022/11/16 02:30:00;;;;;;;7.78;4.13;;;;;;;10.07;100.00;99571.38;20990685;28;20052;-68
2022/11/16 02:40:25;;;;;;;7.10;3.85;;;;;;;10.11;100.00;99577.16;20993653;28;20056;-68
2022/11/16 02:50:51;;;;;;;8.43;4.38;;;;;;;10.07;100.00;99566.19;21002545;28;20495;-68
2022/11/16 03:01:23;;;;;;;5.15;3.90;;;;;;;10.01;100.00;99560.66;20998847;28;20053;-68
2022/11/16 03:12:00;;;;;;;9.93;4.65;;;;;;;9.93;100.00;99555.19;21010246;28;20048;-69
2022/11/16 03:22:35;;;;;;;7.78;4.63;;;;;;;9.86;100.00;99567.06;21002166;28;20109;-69
2022/11/16 03:33:11;;;;;;;6.57;4.88;;;;;;;9.77;100.00;99562.59;20960165;28;20098;-69
2022/11/16 03:43:35;;;;;;;8.57;4.72;;;;;;;9.67;100.00;99548.69;20971520;28;20048;-71
2022/11/16 03:53:57;;;;;;;10.73;5.15;;;;;;;9.57;100.00;99545.19;20987991;28;20036;-70
2022/11/16 04:25:41;;;;;;;8.32;5.25;;;;;;;9.34;100.00;99522.78;20995505;28;20040;-70
2022/11/16 04:47:16;;;;;;;11.43;5.70;;;;;;;9.14;100.00;99515.78;20981252;28;20114;-69
2022/11/16 04:57:30;;;;;;;10.02;5.47;;;;;;;9.07;100.00;99504.19;20980904;28;20044;-70
2022/11/16 05:07:52;;;;;;;12.80;6.20;;;;;;;8.95;100.00;99494.78;20971438;28;20106;-69
2022/11/16 05:18:13;;;;;;;14.00;7.20;;;;;;;8.87;100.00;99497.19;20976782;28;20101;-70
2022/11/16 05:28:35;;;;;;;13.37;7.93;;;;;;;8.80;100.00;99485.59;20998806;28;20044;-68
2022/11/16 05:38:57;;;;;;;15.70;7.78;;;;;;;8.75;100.00;99482.53;20974510;28;20503;-69
2022/11/16 05:49:18;;;;;;;17.47;9.23;;;;;;;8.71;100.00;99494.13;20989803;28;20146;-70
2022/11/16 05:59:40;;;;;;;16.05;9.60;;;;;;;8.67;100.00;99495.31;20982615;28;20090;-72
2022/11/16 06:10:01;;;;;;;16.77;9.23;;;;;;;8.60;100.00;99506.28;20995067;28;20040;-70
2022/11/16 06:20:23;;;;;;;17.37;9.00;;;;;;;8.62;100.00;99513.00;20977678;28;20290;-71
2022/11/16 06:30:44;;;;;;;18.50;9.40;;;;;;;8.63;100.00;99519.84;20982514;28;20048;-71
2022/11/16 06:41:06;;;;;;;15.50;9.77;;;;;;;8.66;100.00;99530.00;20998306;28;20205;-72
2022/11/16 06:51:27;;;;;;;16.70;9.10;;;;;;;8.65;100.00;99530.97;20987329;28;20044;-70
2022/11/16 07:01:49;;;;;;;19.17;9.60;;;;;;;8.62;100.00;99538.97;20867782;22;20069;-64
2022/11/16 07:12:11;;;;;;;17.38;9.60;;;;;;;8.59;100.00;99549.59;20874071;28;20098;-61
2022/11/16 07:22:32;;;;;;;18.33;9.47;;;;;;;8.56;100.00;99558.59;20892403;28;20049;-62
2022/11/16 07:32:58;;;;;;;17.27;9.53;;;;;;;8.55;100.00;99577.72;20891579;28;20041;-62
2022/11/16 07:43:19;;;;;;;16.05;9.90;;;;;;;8.50;100.00;99580.66;20873972;28;20057;-63
2022/11/16 07:53:42;;;;;;;17.10;10.00;;;;;;;8.49;100.00;99583.34;20889100;28;20103;-62
2022/11/16 08:04:03;;;;;;;19.35;10.30;;;;;;;8.47;100.00;99608.59;20887857;28;20041;-63
2022/11/16 08:14:25;;;;;;;17.83;10.10;;;;;;;8.46;100.00;99625.13;20886746;28;20037;-62
2022/11/16 08:24:46;;;;;;;18.07;9.97;;;;;;;8.40;100.00;99631.63;20890796;28;20094;-62
2022/11/16 08:35:08;;;;;;;19.07;10.67;;;;;;;8.40;100.00;99641.19;20882530;28;20049;-62
2022/11/16 08:45:30;;;;;;;17.03;10.37;;;;;;;8.39;100.00;99639.53;20885222;28;20351;-63
2022/11/16 08:55:52;;;;;;;18.60;9.98;;;;;;;8.36;100.00;99665.72;20876579;28;20397;-63
2022/11/16 09:06:14;;;;;;;23.10;10.67;;;;;;;8.41;100.00;99664.44;20885745;28;20049;-63
2022/11/16 09:16:36;;;;;;;15.57;9.63;;;;;;;8.40;100.00;99661.97;20882781;28;20045;-63
2022/11/16 09:27:00;;;;;;;15.60;10.50;;;;;;;8.41;100.00;99663.63;20884637;28;20118;-63
2022/11/16 09:37:21;;;;;;;14.43;8.73;;;;;;;8.42;100.00;99668.69;20880692;28;20056;-63
2022/11/16 09:47:56;;;;;;;17.70;9.93;;;;;;;8.53;100.00;99678.28;20878873;28;20611;-63
2022/11/16 09:58:25;;;;;;;15.88;9.63;;;;;;;8.50;100.00;99678.50;20880676;28;20045;-64
2022/11/16 10:08:50;;;;;;;12.07;8.77;;;;;;;8.52;100.00;99676.63;20890322;28;20103;-66
2022/11/16 10:19:36;;;;;;;13.25;8.38;;;;;;;8.48;100.00;99680.38;20899805;28;20454;-64
2022/11/16 10:30:08;;;;;;;15.05;9.50;;;;;;;8.46;100.00;99675.31;20878899;28;20045;-64
2022/11/16 10:40:37;;;;;;;14.85;8.95;;;;;;;8.47;100.00;99678.72;20886134;28;20037;-64
2022/11/16 10:51:00;;;;;;;15.25;9.20;;;;;;;8.45;100.00;99684.03;20895097;28;20048;-65
2022/11/16 11:01:36;;;;;;;12.82;8.52;;;;;;;8.44;100.00;99691.97;20894640;28;20193;-63
2022/11/16 11:22:48;;;;;;;16.25;9.52;;;;;;;8.31;100.00;99693.78;20889382;28;20037;-64
2022/11/16 11:33:14;;;;;;;14.65;9.57;;;;;;;8.24;100.00;99695.19;20889475;28;20076;-63
2022/11/16 11:43:37;;;;;;;16.17;9.55;;;;;;;8.15;100.00;99682.84;20889850;28;20037;-63
2022/11/16 11:54:01;;;;;;;13.63;9.10;;;;;;;8.15;100.00;99685.44;20890188;28;20045;-64
2022/11/16 12:04:57;;;;;;;12.82;8.23;;;;;;;8.17;100.00;99686.16;20889850;28;20087;-64
2022/11/16 12:15:53;;;;;;;9.65;7.40;;;;;;;8.05;100.00;99687.88;20886142;28;20479;-64
2022/11/16 12:26:44;;;;;;;12.80;8.60;;;;;;;8.14;100.00;99681.19;20861709;28;20143;-65
2022/11/16 12:37:09;;;;;;;14.87;10.03;;;;;;;8.17;100.00;99675.78;20893208;28;20049;-66
2022/11/16 12:47:36;;;;;;;17.23;10.68;;;;;;;8.09;100.00;99665.94;20889015;28;20037;-67
2022/11/16 12:58:13;;;;;;;17.80;10.90;;;;;;;8.09;100.00;99675.50;20890017;28;20049;-66
2022/11/16 13:08:44;;;;;;;15.90;10.63;;;;;;;8.02;100.00;99676.88;20892155;28;20049;-67
2022/11/16 13:19:10;;;;;;;17.93;10.93;;;;;;;8.01;100.00;99680.41;20882837;28;20598;-67
2022/11/16 13:30:13;;;;;;;16.67;11.13;;;;;;;8.01;100.00;99680.41;20884168;28;20446;-68
2022/11/16 13:40:35;;;;;;;16.50;10.73;;;;;;;7.90;100.00;99663.03;20880504;28;20110;-66
2022/11/16 13:51:01;;;;;;;15.73;11.18;;;;;;;7.89;100.00;99670.91;20863780;23;20604;-71
2022/11/16 14:01:22;;;;;;;17.65;11.38;;;;;;;7.80;100.00;99661.22;20896543;28;20056;-71
2022/11/16 14:11:44;;;;;;;;;;;;;;;7.79;100.00;99680.31;20920029;28;20415;-71
2022/11/16 14:22:17;;;;;;;31.43;12.83;;;;;;;7.80;100.00;99676.78;20939335;28;19931;-71
2022/11/16 14:33:11;;;;;;;17.60;10.80;;;;;;;7.75;100.00;99677.09;20938425;28;20496;-71
2022/11/16 14:43:40;;;;;;;23.33;10.82;;;;;;;7.61;100.00;99681.59;20928256;28;20547;-71
2022/11/16 14:54:10;;;;;;;15.52;9.35;;;;;;;7.55;100.00;99692.41;20934018;28;20044;-70
2022/11/16 15:04:31;;;;;;;17.80;10.27;;;;;;;7.49;100.00;99698.03;20938475;28;20507;-71
2022/11/16 15:14:56;;;;;;;18.23;11.27;;;;;;;7.44;100.00;99689.72;20952351;28;20509;-70
2022/11/16 15:25:29;;;;;;;21.00;10.40;;;;;;;7.39;100.00;99699.63;20940135;28;20040;-69
2022/11/16 15:35:54;;;;;;;19.73;10.52;;;;;;;7.35;100.00;99680.00;20940919;28;20516;-69
2022/11/16 15:46:16;;;;;;;15.63;9.85;;;;;;;7.29;100.00;99690.78;20941645;28;20040;-69
2022/11/16 15:56:38;;;;;;;17.95;9.75;;;;;;;7.26;100.00;99675.47;20957884;28;20094;-71
2022/11/16 16:07:00;;;;;;;17.08;10.05;;;;;;;7.24;100.00;99682.53;20966442;28;20090;-69
2022/11/16 16:17:24;;;;;;;15.27;9.52;;;;;;;7.22;100.00;99686.97;20966431;28;20047;-69
2022/11/16 16:27:46;;;;;;;13.82;8.93;;;;;;;7.19;100.00;99684.59;20914188;28;20045;-69
2022/11/16 16:38:11;;;;;;;13.50;8.97;;;;;;;7.15;100.00;99685.72;20989670;28;20045;-70
2022/11/16 16:48:33;;;;;;;12.88;8.13;;;;;;;7.15;100.00;99683.16;20934291;28;20037;-71
2022/11/16 16:58:54;;;;;;;12.80;7.83;;;;;;;7.07;100.00;99669.91;20938086;28;20048;-67
2022/11/16 17:09:16;;;;;;;14.83;8.30;;;;;;;7.02;100.00;99666.78;20927710;28;20032;-71
2022/11/16 17:19:37;;;;;;;13.37;8.30;;;;;;;6.99;100.00;99687.72;20917324;28;20457;-60
2022/11/16 17:29:59;;;;;;;13.27;9.10;;;;;;;7.03;100.00;99668.44;20921873;28;20124;-58
2022/11/16 17:40:21;;;;;;;13.68;9.00;;;;;;;7.01;100.00;99670.31;20920570;28;20102;-58
2022/11/16 17:50:46;;;;;;;17.13;8.83;;;;;;;6.97;100.00;99676.66;20935183;28;20084;-59
2022/11/16 18:01:08;;;;;;;14.57;8.40;;;;;;;7.00;100.00;99673.03;20941105;28;20470;-59
2022/11/16 18:11:30;;;;;;;18.70;9.93;;;;;;;6.99;100.00;99664.41;20916925;28;20086;-58
2022/11/16 18:21:51;;;;;;;17.13;9.40;;;;;;;6.96;100.00;99651.69;20921917;28;20044;-59
2022/11/16 18:32:13;;;;;;;15.40;9.10;;;;;;;6.91;100.00;99653.75;20739249;28;20112;-65
2022/11/16 18:42:34;;;;;;;17.37;9.23;;;;;;;6.88;100.00;99643.59;20405761;28;20094;-65
2022/11/16 18:52:56;;;;;;;15.63;8.97;;;;;;;6.90;100.00;99652.09;20942098;28;20103;-65
2022/11/16 19:03:18;;;;;;;18.73;8.98;;;;;;;6.86;100.00;99634.28;20935612;28;20149;-65
2022/11/16 19:13:41;;;;;;;14.07;7.65;;;;;;;6.83;100.00;99632.75;20939786;28;20037;-65
2022/11/16 19:24:05;;;;;;;14.43;7.68;;;;;;;6.81;100.00;99626.84;20940533;28;20110;-65
2022/11/16 19:34:27;;;;;;;14.35;7.28;;;;;;;6.81;100.00;99616.47;20929308;28;20094;-64
2022/11/16 19:44:53;;;;;;;12.63;6.70;;;;;;;6.78;100.00;99611.50;20930115;28;20044;-64
2022/11/16 19:55:15;;;;;;;12.07;6.17;;;;;;;6.77;100.00;99620.19;20941415;28;20044;-66
2022/11/16 20:05:36;;;;;;;10.10;6.17;;;;;;;6.75;100.00;99611.69;20934891;28;20044;-65
2022/11/16 20:16:00;;;;;;;7.87;5.40;;;;;;;6.76;100.00;99610.78;20905510;28;20040;-65
2022/11/16 20:26:23;;;;;;;8.73;5.20;;;;;;;6.79;100.00;99596.78;20926684;28;20052;-66
2022/11/16 20:36:48;;;;;;;8.65;5.25;;;;;;;6.83;100.00;99588.72;20953572;28;20496;-65
2022/11/16 20:47:09;;;;;;;8.20;4.57;;;;;;;6.83;100.00;99588.72;20973640;28;20454;-66
2022/11/16 20:57:31;;;;;;;7.50;4.70;;;;;;;6.81;100.00;99590.56;20933420;28;20564;-65
2022/11/16 21:07:52;;;;;;;7.53;3.93;;;;;;;6.83;100.00;99591.31;20976763;28;20110;-64
2022/11/16 21:18:14;;;;;;;6.53;4.00;;;;;;;6.76;100.00;99586.66;20927587;28;20048;-64
2022/11/16 21:28:37;;;;;;;5.40;3.10;;;;;;;6.68;100.00;99558.69;20930594;28;20385;-66
2022/11/16 21:38:58;;;;;;;7.82;3.50;;;;;;;6.63;100.00;99551.34;20928905;28;20625;-65
2022/11/16 21:49:20;;;;;;;5.55;3.30;;;;;;;6.59;100.00;99548.13;20922402;28;20045;-65
2022/11/16 21:59:41;;;;;;;6.27;3.27;;;;;;;6.63;100.00;99528.03;20926485;28;20052;-64
2022/11/16 22:10:07;;;;;;;5.40;3.27;;;;;;;6.57;100.00;99523.25;20937881;28;20125;-64
2022/11/16 22:20:28;;;;;;;5.07;3.47;;;;;;;6.47;100.00;99532.59;20936793;28;20209;-66
2022/11/16 22:31:01;;;;;;;5.20;3.47;;;;;;;6.43;100.00;99520.81;20941615;28;20041;-66
2022/11/16 22:41:22;;;;;;;5.85;3.50;;;;;;;6.37;100.00;99506.53;20945404;28;20071;-68
2022/11/16 22:51:44;;;;;;;4.77;3.60;;;;;;;6.32;100.00;99471.56;20938157;28;20128;-66
2022/11/16 23:02:07;;;;;;;4.78;3.42;;;;;;;6.25;100.00;99454.81;20928133;28;20056;-66
2022/11/16 23:33:57;;;;;;;6.45;4.18;;;;;;;6.11;100.00;99432.47;20944982;28;20099;-63
2022/11/16 23:44:19;;;;;;;6.00;3.80;;;;;;;6.05;100.00;99413.97;20953703;28;21220;-64
2022/11/16 23:54:40;;;;;;;5.63;3.53;;;;;;;6.03;100.00;99388.22;20939801;28;20067;-64
